createdAt,value
2022-12-06T00:01:10.660Z,101683.38
2022-12-06T00:03:39.140Z,101682.06
2022-12-06T00:06:09.186Z,101681.78
2022-12-06T00:08:37.799Z,101680.72
2022-12-06T00:11:09.649Z,101677.81
2022-12-06T00:13:40.536Z,101665.78
2022-12-06T00:16:11.797Z,101670.63
2022-12-06T00:18:41.044Z,101672.25
2022-12-06T00:21:10.020Z,101669.34
2022-12-06T00:23:38.837Z,101671.22
2022-12-06T00:26:07.379Z,101675.53
2022-12-06T00:28:36.508Z,101667.69
2022-12-06T00:31:06.906Z,101678.78
2022-12-06T00:33:36.998Z,101669.56
2022-12-06T00:36:07.071Z,101670.63
2022-12-06T00:38:36.587Z,101665.28
2022-12-06T00:41:06.132Z,101669.03
2022-12-06T00:43:34.905Z,101661.47
2022-12-06T00:46:03.309Z,101668.47
2022-12-06T00:48:31.408Z,101667.91
2022-12-06T00:51:00.685Z,101669.53
2022-12-06T00:53:28.941Z,101672.22
2022-12-06T00:55:56.751Z,101673.56
2022-12-06T00:58:25.275Z,101674.38
2022-12-06T01:00:53.376Z,101676.81
2022-12-06T01:03:22.446Z,101672.84
2022-12-06T01:05:51.839Z,101671.78
2022-12-06T01:08:21.879Z,101677.72
2022-12-06T01:10:54.448Z,101678.28
2022-12-06T01:13:22.678Z,101675.66
2022-12-06T01:15:50.986Z,101675.19
2022-12-06T01:18:18.968Z,101668.25
2022-12-06T01:20:46.795Z,101677.13
2022-12-06T01:23:15.317Z,101667.69
2022-12-06T01:25:53.006Z,101669.81
2022-12-06T01:28:20.829Z,101669.81
2022-12-06T01:30:49.169Z,101665.25
2022-12-06T01:33:17.100Z,101670.38
2022-12-06T01:35:45.641Z,101676.81
2022-12-06T01:38:14.003Z,101675.66
2022-12-06T01:40:44.387Z,101673.78
2022-12-06T01:43:32.083Z,101677.53
2022-12-06T01:46:04.337Z,101679.16
2022-12-06T01:48:33.893Z,101684.28
2022-12-06T01:51:03.035Z,101675.66
2022-12-06T01:53:32.134Z,101672.44
2022-12-06T01:56:00.143Z,101675.38
2022-12-06T01:58:34.390Z,101669.19
2022-12-06T02:01:03.216Z,101663.72
2022-12-06T02:03:34.623Z,101664.78
2022-12-06T02:06:04.968Z,101666.41
2022-12-06T02:08:34.071Z,101665.34
2022-12-06T02:11:04.576Z,101663.81
2022-12-06T02:13:35.641Z,101664.13
2022-12-06T02:16:14.549Z,101668.16
2022-12-06T02:18:48.397Z,101660.69
2022-12-06T02:21:27.284Z,101656.44
2022-12-06T02:24:34.698Z,101660.69
2022-12-06T02:27:20.042Z,101662.31
2022-12-06T02:30:18.482Z,101657.44
2022-12-06T02:32:55.242Z,101649.38
2022-12-06T02:35:32.568Z,101646.13
2022-12-06T02:38:12.666Z,101652.06
2022-12-06T02:40:47.018Z,101647.75
2022-12-06T02:43:18.867Z,101651.59
2022-12-06T02:45:52.091Z,101641.91
2022-12-06T02:48:23.460Z,101646.22
2022-12-06T02:50:56.012Z,101639.53
2022-12-06T02:53:27.065Z,101657.50
2022-12-06T02:55:56.576Z,101649.44
2022-12-06T02:58:24.847Z,101646.22
2022-12-06T03:00:54.879Z,101649.16
2022-12-06T03:03:40.539Z,101645.88
2022-12-06T03:06:36.217Z,101645.06
2022-12-06T03:09:17.902Z,101642.97
2022-12-06T03:11:54.202Z,101641.09
2022-12-06T03:14:24.424Z,101639.25
2022-12-06T03:17:02.473Z,101639.84
2022-12-06T03:19:32.902Z,101643.91
2022-12-06T03:22:05.087Z,101640.72
2022-12-06T03:24:36.471Z,101637.22
2022-12-06T03:27:08.690Z,101642.09
2022-12-06T03:29:41.527Z,101638.34
2022-12-06T03:32:11.210Z,101636.72
2022-12-06T03:34:44.713Z,101628.94
2022-12-06T03:37:16.417Z,101635.09
2022-12-06T03:39:49.495Z,101640.47
2022-12-06T03:42:19.009Z,101630.28
2022-12-06T03:44:48.097Z,101634.59
2022-12-06T03:47:22.013Z,101635.66
2022-12-06T03:49:58.224Z,101633.53
2022-12-06T03:52:29.433Z,101633.06
2022-12-06T03:54:57.458Z,101635.75
2022-12-06T03:57:25.474Z,101636.56
2022-12-06T03:59:53.181Z,101631.66
2022-12-06T04:02:21.014Z,101636.22
2022-12-06T04:04:49.342Z,101633.53
2022-12-06T04:07:21.153Z,101634.13
2022-12-06T04:10:03.280Z,101634.94
2022-12-06T04:12:50.377Z,101629.03
2022-12-06T04:15:19.098Z,101631.00
2022-12-06T04:18:04.593Z,101630.47
2022-12-06T04:20:53.695Z,101628.34
2022-12-06T04:23:21.830Z,101629.75
2022-12-06T04:25:49.729Z,101631.09
2022-12-06T04:28:35.000Z,101636.00
2022-12-06T04:31:22.327Z,101624.41
2022-12-06T04:34:08.108Z,101625.25
2022-12-06T04:36:54.849Z,101619.88
2022-12-06T04:39:24.051Z,101624.19
2022-12-06T04:42:09.680Z,101628.47
2022-12-06T04:44:37.585Z,101623.91
2022-12-06T04:47:05.867Z,101625.53
2022-12-06T04:49:34.006Z,101634.41
2022-12-06T04:52:02.038Z,101633.34
2022-12-06T04:54:31.347Z,101631.25
2022-12-06T04:56:59.492Z,101636.09
2022-12-06T04:59:30.341Z,101629.66
2022-12-06T05:01:58.283Z,101633.16
2022-12-06T05:04:26.192Z,101628.59
2022-12-06T05:06:54.244Z,101636.38
2022-12-06T05:09:22.138Z,101636.16
2022-12-06T05:11:51.275Z,101631.34
2022-12-06T05:14:19.103Z,101627.09
2022-12-06T05:16:47.075Z,101621.19
2022-12-06T05:19:15.541Z,101620.47
2022-12-06T05:21:43.336Z,101618.56
2022-12-06T05:24:11.395Z,101612.69
2022-12-06T05:26:39.237Z,101618.13
2022-12-06T05:29:08.385Z,101624.03
2022-12-06T05:31:36.231Z,101622.16
2022-12-06T05:34:04.114Z,101622.41
2022-12-06T05:36:31.951Z,101618.66
2022-12-06T05:38:59.946Z,101624.59
2022-12-06T05:41:27.736Z,101628.94
2022-12-06T05:43:55.576Z,101619.22
2022-12-06T05:46:24.878Z,101623.03
2022-12-06T05:48:52.755Z,101614.44
2022-12-06T05:51:20.550Z,101617.13
2022-12-06T05:53:48.433Z,101611.25
2022-12-06T05:56:16.265Z,101609.13
2022-12-06T05:58:44.153Z,101618.06
2022-12-06T06:01:12.124Z,101617.53
2022-12-06T06:03:47.104Z,101620.78
2022-12-06T06:06:15.895Z,101618.66
2022-12-06T06:08:44.044Z,101610.63
2022-12-06T06:11:12.065Z,101609.31
2022-12-06T06:13:39.882Z,101611.22
2022-12-06T06:16:08.192Z,101615.56
2022-12-06T06:18:38.844Z,101612.13
2022-12-06T06:21:08.176Z,101612.16
2022-12-06T06:23:36.049Z,101608.69
2022-12-06T06:26:08.287Z,101613.56
2022-12-06T06:28:36.192Z,101608.47
2022-12-06T06:31:04.397Z,101612.78
2022-12-06T06:33:32.331Z,101615.47
2022-12-06T06:36:00.317Z,101614.41
2022-12-06T06:38:29.743Z,101617.66
2022-12-06T06:40:57.759Z,101617.13
2022-12-06T06:43:25.659Z,101616.63
2022-12-06T06:45:54.757Z,101612.84
2022-12-06T06:48:23.225Z,101614.47
2022-12-06T06:50:56.704Z,101614.47
2022-12-06T06:53:27.613Z,101614.47
2022-12-06T06:55:57.135Z,101611.25
2022-12-06T06:58:25.895Z,101617.22
2022-12-06T07:00:55.229Z,101612.63
2022-12-06T07:03:24.117Z,101615.06
2022-12-06T07:05:56.148Z,101612.38
2022-12-06T07:08:24.507Z,101605.91
2022-12-06T07:10:52.656Z,101605.91
2022-12-06T07:13:22.838Z,101616.19
2022-12-06T07:15:50.737Z,101614.53
2022-12-06T07:18:19.961Z,101612.41
2022-12-06T07:20:49.690Z,101611.06
2022-12-06T07:23:17.871Z,101615.63
2022-12-06T07:25:45.693Z,101607.56
2022-12-06T07:28:13.488Z,101613.75
2022-12-06T07:30:42.785Z,101617.25
2022-12-06T07:33:10.676Z,101617.00
2022-12-06T07:36:10.525Z,101615.09
2022-12-06T07:38:26.356Z,101611.38
2022-12-06T07:41:04.573Z,101615.94
2022-12-06T07:43:50.389Z,101622.13
2022-12-06T07:46:19.666Z,101613.22
2022-12-06T07:48:47.512Z,101617.78
2022-12-06T07:51:15.381Z,101621.03
2022-12-06T07:53:43.213Z,101618.88
2022-12-06T07:56:11.777Z,101616.75
2022-12-06T07:58:39.641Z,101623.22
2022-12-06T08:01:07.455Z,101626.47
2022-12-06T08:03:36.768Z,101630.53
2022-12-06T08:06:04.774Z,101636.72
2022-12-06T08:08:32.913Z,101637.22
2022-12-06T08:11:00.928Z,101637.53
2022-12-06T08:13:29.588Z,101637.31
2022-12-06T08:15:57.474Z,101635.41
2022-12-06T08:18:25.674Z,101641.13
2022-12-06T08:20:55.262Z,101641.13
2022-12-06T08:23:24.918Z,101648.13
2022-12-06T08:25:59.610Z,101647.84
2022-12-06T08:28:27.660Z,101649.75
2022-12-06T08:31:01.297Z,101649.47
2022-12-06T08:33:30.908Z,101649.19
2022-12-06T08:36:00.451Z,101655.16
2022-12-06T08:38:29.412Z,101650.84
2022-12-06T08:40:57.179Z,101655.69
2022-12-06T08:43:25.028Z,101650.31
2022-12-06T08:45:53.421Z,101652.47
2022-12-06T08:48:21.496Z,101657.63
2022-12-06T08:50:52.449Z,101660.06
2022-12-06T08:53:21.901Z,101654.66
2022-12-06T08:56:02.234Z,101663.28
2022-12-06T08:58:30.781Z,101658.44
2022-12-06T09:00:58.724Z,101660.09
2022-12-06T09:03:26.687Z,101663.88
2022-12-06T09:05:54.605Z,101669.28
2022-12-06T09:08:24.016Z,101664.72
2022-12-06T09:10:51.908Z,101666.06
2022-12-06T09:13:19.827Z,101662.81
2022-12-06T09:15:47.937Z,101670.63
2022-12-06T09:18:15.871Z,101670.38
2022-12-06T09:20:43.996Z,101672.25
2022-12-06T09:23:12.090Z,101672.25
2022-12-06T09:25:43.598Z,101676.84
2022-12-06T09:28:12.598Z,101671.44
2022-12-06T09:30:40.414Z,101678.47
2022-12-06T09:33:08.272Z,101671.44
2022-12-06T09:35:36.768Z,101675.22
2022-12-06T09:38:04.935Z,101676.25
2022-12-06T09:40:39.863Z,101673.59
2022-12-06T09:43:27.578Z,101680.06
2022-12-06T09:46:08.788Z,101679.53
2022-12-06T09:48:58.909Z,101681.41
2022-12-06T09:51:39.629Z,101684.16
2022-12-06T09:54:22.301Z,101681.72
2022-12-06T09:56:56.009Z,101680.69
2022-12-06T09:59:35.230Z,101670.69
2022-12-06T10:02:37.495Z,101672.81
2022-12-06T10:05:25.670Z,101667.72
2022-12-06T10:08:02.550Z,101668.81
2022-12-06T10:10:37.444Z,101663.44
2022-12-06T10:13:11.438Z,101667.78
2022-12-06T10:15:53.819Z,101654.59
2022-12-06T10:18:45.557Z,101658.63
2022-12-06T10:21:23.143Z,101651.09
2022-12-06T10:24:07.960Z,101640.31
2022-12-06T10:26:43.897Z,101653.28
2022-12-06T10:29:24.497Z,101652.19
2022-12-06T10:32:03.759Z,101648.69
2022-12-06T10:34:49.030Z,101639.28
2022-12-06T10:37:30.671Z,101642.25
2022-12-06T10:40:07.816Z,101645.22
2022-12-06T10:42:41.828Z,101651.47
2022-12-06T10:45:37.753Z,101646.88
2022-12-06T10:48:15.969Z,101634.44
2022-12-06T10:50:47.410Z,101632.84
2022-12-06T10:53:18.283Z,101625.28
2022-12-06T10:55:51.125Z,101631.22
2022-12-06T10:58:28.515Z,101624.75
2022-12-06T11:00:58.674Z,101624.22
2022-12-06T11:03:34.598Z,101628.81
2022-12-06T11:06:09.580Z,101617.19
2022-12-06T11:08:40.986Z,101621.81
2022-12-06T11:11:16.197Z,101623.97
2022-12-06T11:13:47.644Z,101619.38
2022-12-06T11:16:19.962Z,101618.56
2022-12-06T11:18:50.255Z,101619.09
2022-12-06T11:21:28.305Z,101617.75
2022-12-06T11:24:02.465Z,101613.97
2022-12-06T11:26:37.514Z,101615.06
2022-12-06T11:29:11.246Z,101605.88
2022-12-06T11:31:44.622Z,101610.19
2022-12-06T11:34:17.691Z,101611.81
2022-12-06T11:36:46.295Z,101604.25
2022-12-06T11:39:15.939Z,101604.25
2022-12-06T11:41:46.841Z,101605.84
2022-12-06T11:44:18.534Z,101610.72
2022-12-06T11:46:46.585Z,101604.25
2022-12-06T11:49:20.235Z,101607.75
2022-12-06T11:51:48.344Z,101610.19
2022-12-06T11:54:23.997Z,101610.97
2022-12-06T11:56:52.317Z,101616.94
2022-12-06T11:59:28.466Z,101622.59
2022-12-06T12:01:59.010Z,101626.41
2022-12-06T12:04:32.996Z,101618.28
2022-12-06T12:07:04.555Z,101619.09
2022-12-06T12:09:36.588Z,101622.06
2022-12-06T12:12:08.351Z,101618.84
2022-12-06T12:14:44.200Z,101614.53
2022-12-06T12:17:19.360Z,101611.03
2022-12-06T12:19:52.177Z,101599.38
2022-12-06T12:22:31.749Z,101608.56
2022-12-06T12:27:51.190Z,101598.84
2022-12-06T12:30:31.048Z,101594.00
2022-12-06T12:33:26.144Z,101598.31
2022-12-06T12:36:09.562Z,101593.97
2022-12-06T12:38:42.252Z,101592.38
2022-12-06T12:41:24.731Z,101591.28
2022-12-06T12:44:35.992Z,101598.84
2022-12-06T12:46:53.981Z,101602.09
2022-12-06T12:49:31.852Z,101588.88
2022-12-06T12:52:02.878Z,101593.72
2022-12-06T12:54:33.810Z,101594.53
2022-12-06T12:57:04.417Z,101590.78
2022-12-06T12:59:38.597Z,101588.59
2022-12-06T13:02:17.519Z,101583.72
2022-12-06T13:04:50.758Z,101587.22
2022-12-06T13:07:30.608Z,101582.13
2022-12-06T13:10:03.049Z,101575.63
2022-12-06T13:12:35.524Z,101575.06
2022-12-06T13:15:07.933Z,101578.59
2022-12-06T13:17:37.883Z,101580.19
2022-12-06T13:20:21.073Z,101572.38
2022-12-06T13:22:52.867Z,101575.06
2022-12-06T13:25:20.964Z,101577.75
2022-12-06T13:27:53.538Z,101568.03
2022-12-06T13:30:24.173Z,101570.22
2022-12-06T13:32:55.749Z,101565.34
2022-12-06T13:35:28.870Z,101568.84
2022-12-06T13:38:00.593Z,101562.63
2022-12-06T13:40:49.444Z,101568.31
2022-12-06T13:43:51.402Z,101553.44
2022-12-06T13:46:28.616Z,101568.03
2022-12-06T13:48:58.062Z,101568.56
2022-12-06T13:51:49.508Z,101563.44
2022-12-06T13:54:32.781Z,101566.09
2022-12-06T13:57:33.099Z,101573.91
2022-12-06T14:00:01.584Z,101570.41
2022-12-06T14:02:46.418Z,101567.47
2022-12-06T14:05:47.748Z,101571.53
2022-12-06T14:08:15.842Z,101568.03
2022-12-06T14:10:45.177Z,101570.72
2022-12-06T14:13:18.359Z,101569.13
2022-12-06T14:15:48.385Z,101571.81
2022-12-06T14:18:25.296Z,101566.41
2022-12-06T14:20:56.474Z,101568.03
2022-12-06T14:23:29.106Z,101565.84
2022-12-06T14:26:16.691Z,101565.59
2022-12-06T14:28:44.971Z,101567.47
2022-12-06T14:31:22.190Z,101562.63
2022-12-06T14:33:51.068Z,101564.47
2022-12-06T14:36:22.319Z,101559.88
2022-12-06T14:38:53.956Z,101567.75
2022-12-06T14:41:40.552Z,101563.66
2022-12-06T14:44:16.637Z,101566.38
2022-12-06T14:46:46.447Z,101565.28
2022-12-06T14:49:35.187Z,101563.97
2022-12-06T14:52:03.009Z,101564.78
2022-12-06T14:54:44.103Z,101558.84
2022-12-06T14:57:27.323Z,101562.09
2022-12-06T15:00:18.454Z,101552.09
2022-12-06T15:03:16.491Z,101557.78
2022-12-06T15:05:49.637Z,101557.22
2022-12-06T15:08:36.509Z,101554.56
2022-12-06T15:11:07.034Z,101557.22
2022-12-06T15:13:35.709Z,101562.38
2022-12-06T15:16:15.296Z,101558.88
2022-12-06T15:18:45.893Z,101559.41
2022-12-06T15:21:15.839Z,101553.19
2022-12-06T15:23:49.805Z,101555.38
2022-12-06T15:26:19.798Z,101558.34
2022-12-06T15:28:49.435Z,101556.72
2022-12-06T15:31:20.867Z,101556.19
2022-12-06T15:33:49.222Z,101550.25
2022-12-06T15:36:19.021Z,101551.88
2022-12-06T15:38:47.093Z,101553.75
2022-12-06T15:41:17.926Z,101547.53
2022-12-06T15:43:46.377Z,101546.47
2022-12-06T15:46:23.813Z,101554.84
2022-12-06T15:48:53.067Z,101551.88
2022-12-06T15:51:24.789Z,101550.25
2022-12-06T15:53:52.873Z,101554.84
2022-12-06T15:56:23.235Z,101555.09
2022-12-06T15:58:52.299Z,101555.09
2022-12-06T16:01:24.149Z,101556.19
2022-12-06T16:03:54.172Z,101556.19
2022-12-06T16:06:24.518Z,101564.03
2022-12-06T16:08:52.794Z,101558.63
2022-12-06T16:11:23.180Z,101552.38
2022-12-06T16:13:51.681Z,101549.16
2022-12-06T16:16:22.813Z,101561.56
2022-12-06T16:18:51.706Z,101559.16
2022-12-06T16:21:22.473Z,101561.56
2022-12-06T16:24:13.141Z,101559.44
2022-12-06T16:26:44.347Z,101547.00
2022-12-06T16:29:14.526Z,101554.03
2022-12-06T16:31:43.942Z,101548.63
2022-12-06T16:34:11.823Z,101541.59
2022-12-06T16:36:55.881Z,101546.47
2022-12-06T16:39:24.001Z,101552.94
2022-12-06T16:41:51.794Z,101548.91
2022-12-06T16:44:19.698Z,101537.31
2022-12-06T16:46:48.995Z,101543.50
2022-12-06T16:49:49.729Z,101539.44
2022-12-06T16:52:08.122Z,101535.94
2022-12-06T16:54:36.201Z,101537.03
2022-12-06T16:57:04.015Z,101534.59
2022-12-06T16:59:32.694Z,101531.38
2022-12-06T17:02:01.886Z,101528.13
2022-12-06T17:04:31.534Z,101525.69
2022-12-06T17:06:59.378Z,101526.50
2022-12-06T17:09:27.186Z,101521.91
2022-12-06T17:12:06.585Z,101523.28
2022-12-06T17:14:36.110Z,101522.47
2022-12-06T17:17:05.415Z,101519.50
2022-12-06T17:19:37.027Z,101515.72
2022-12-06T17:22:06.275Z,101513.81
2022-12-06T17:24:34.467Z,101524.34
2022-12-06T17:27:02.411Z,101520.81
2022-12-06T17:29:30.267Z,101515.72
2022-12-06T17:31:58.223Z,101515.72
2022-12-06T17:34:28.133Z,101510.59
2022-12-06T17:36:57.502Z,101512.47
2022-12-06T17:39:25.758Z,101514.66
2022-12-06T17:42:25.710Z,101505.75
2022-12-06T17:44:53.751Z,101509.78
2022-12-06T17:47:21.700Z,101509.78
2022-12-06T17:49:51.680Z,101518.16
2022-12-06T17:52:20.292Z,101514.13
2022-12-06T17:54:48.145Z,101509.25
2022-12-06T17:57:18.570Z,101513.03
2022-12-06T17:59:48.071Z,101516.00
2022-12-06T18:02:18.766Z,101515.22
2022-12-06T18:04:47.869Z,101508.19
2022-12-06T18:07:18.345Z,101506.56
2022-12-06T18:09:47.494Z,101506.03
2022-12-06T18:12:16.918Z,101511.94
2022-12-06T18:14:45.600Z,101500.88
2022-12-06T18:17:14.038Z,101507.09
2022-12-06T18:19:41.920Z,101505.47
2022-12-06T18:22:10.546Z,101506.56
2022-12-06T18:24:39.971Z,101501.44
2022-12-06T18:27:08.105Z,101499.81
2022-12-06T18:29:36.940Z,101495.75
2022-12-06T18:32:05.729Z,101503.31
2022-12-06T18:34:33.587Z,101503.31
2022-12-06T18:37:01.556Z,101492.53
2022-12-06T18:39:29.396Z,101497.94
2022-12-06T18:41:58.641Z,101496.31
2022-12-06T18:44:26.905Z,101493.09
2022-12-06T18:46:54.766Z,101493.88
2022-12-06T18:49:22.605Z,101492.28
2022-12-06T18:51:50.696Z,101490.66
2022-12-06T18:54:18.738Z,101496.88
2022-12-06T18:56:46.854Z,101494.69
2022-12-06T18:59:16.313Z,101504.41
2022-12-06T19:01:44.523Z,101501.69
2022-12-06T19:04:16.581Z,101495.22
2022-12-06T19:06:45.494Z,101494.69
2022-12-06T19:09:15.063Z,101488.75
2022-12-06T19:11:46.549Z,101491.44
2022-12-06T19:14:17.151Z,101496.31
2022-12-06T19:16:46.474Z,101490.91
2022-12-06T19:19:17.112Z,101492.00
2022-12-06T19:21:45.708Z,101496.06
2022-12-06T19:24:15.652Z,101492.00
2022-12-06T19:26:45.745Z,101490.38
2022-12-06T19:29:15.854Z,101495.78
2022-12-06T19:31:44.231Z,101486.34
2022-12-06T19:34:17.659Z,101484.72
2022-12-06T19:36:46.293Z,101494.72
2022-12-06T19:39:15.038Z,101488.22
2022-12-06T19:42:01.037Z,101481.50
2022-12-06T19:44:31.038Z,101482.31
2022-12-06T19:46:59.313Z,101480.41
2022-12-06T19:49:28.202Z,101477.44
2022-12-06T19:51:56.624Z,101478.78
2022-12-06T19:54:26.564Z,101466.09
2022-12-06T19:56:57.164Z,101468.78
2022-12-06T19:59:27.669Z,101472.84
2022-12-06T20:01:58.258Z,101477.41
2022-12-06T20:04:29.256Z,101478.22
2022-12-06T20:06:57.744Z,101470.94
2022-12-06T20:09:27.931Z,101479.03
2022-12-06T20:12:03.257Z,101469.59
2022-12-06T20:14:35.791Z,101478.25
2022-12-06T20:17:07.584Z,101469.34
2022-12-06T20:19:35.598Z,101463.41
2022-12-06T20:22:04.268Z,101463.16
2022-12-06T20:24:32.732Z,101461.50
2022-12-06T20:27:00.763Z,101462.31
2022-12-06T20:29:30.061Z,101465.28
2022-12-06T20:31:59.533Z,101456.13
2022-12-06T20:34:34.071Z,101466.66
2022-12-06T20:37:04.191Z,101464.47
2022-12-06T20:39:35.286Z,101468.78
2022-12-06T20:42:05.771Z,101468.25
2022-12-06T20:44:34.467Z,101465.28
2022-12-06T20:47:02.488Z,101459.63
2022-12-06T20:49:31.963Z,101460.69
2022-12-06T20:52:04.638Z,101463.16
2022-12-06T20:54:32.551Z,101458.56
2022-12-06T20:57:01.015Z,101458.56
2022-12-06T20:59:29.526Z,101456.13
2022-12-06T21:01:57.640Z,101464.47
2022-12-06T21:04:26.739Z,101460.16
2022-12-06T21:06:56.552Z,101453.44
2022-12-06T21:09:24.855Z,101453.44
2022-12-06T21:11:52.740Z,101448.84
2022-12-06T21:14:20.798Z,101453.44
2022-12-06T21:16:48.966Z,101450.19
2022-12-06T21:19:19.454Z,101458.56
2022-12-06T21:21:49.713Z,101453.16
2022-12-06T21:24:21.313Z,101452.63
2022-12-06T21:26:52.177Z,101443.72
2022-12-06T21:29:28.405Z,101444.53
2022-12-06T21:31:58.630Z,101449.13
2022-12-06T21:34:26.524Z,101447.75
2022-12-06T21:36:54.403Z,101451.00
2022-12-06T21:39:23.745Z,101451.28
2022-12-06T21:41:53.311Z,101449.91
2022-12-06T21:44:21.460Z,101447.22
2022-12-06T21:46:53.251Z,101451.53
2022-12-06T21:49:21.552Z,101447.78
2022-12-06T21:51:51.074Z,101445.06
2022-12-06T21:54:20.604Z,101442.38
2022-12-06T21:56:50.101Z,101446.13
2022-12-06T21:59:18.327Z,101442.91
2022-12-06T22:01:46.448Z,101446.69
2022-12-06T22:04:14.359Z,101447.25
2022-12-06T22:06:42.345Z,101448.84
2022-12-06T22:09:11.020Z,101450.75
2022-12-06T22:11:39.325Z,101454.25
2022-12-06T22:14:08.627Z,101454.78
2022-12-06T22:16:36.596Z,101450.47
2022-12-06T22:19:05.066Z,101453.16
2022-12-06T22:21:34.205Z,101453.44
2022-12-06T22:24:02.640Z,101453.72
2022-12-06T22:26:32.181Z,101447.50
2022-12-06T22:29:01.419Z,101448.59
2022-12-06T22:31:33.510Z,101452.09
2022-12-06T22:34:02.441Z,101450.75
2022-12-06T22:36:31.155Z,101443.97
2022-12-06T22:39:00.463Z,101454.53
2022-12-06T22:41:29.441Z,101447.75
2022-12-06T22:43:59.002Z,101459.91
2022-12-06T22:46:27.843Z,101455.06
2022-12-06T22:48:57.950Z,101445.34
2022-12-06T22:51:27.682Z,101453.72
2022-12-06T22:53:57.188Z,101455.84
2022-12-06T22:56:25.929Z,101451.53
2022-12-06T22:58:54.074Z,101449.94
2022-12-06T23:01:24.381Z,101451.53
2022-12-06T23:03:53.558Z,101448.84
2022-12-06T23:06:25.649Z,101444.00
2022-12-06T23:08:54.023Z,101434.81
2022-12-06T23:11:24.325Z,101444.00
2022-12-06T23:13:52.485Z,101432.13
2022-12-06T23:16:23.269Z,101428.91
2022-12-06T23:18:51.702Z,101435.38
2022-12-06T23:21:23.619Z,101437.00
2022-12-06T23:23:53.396Z,101429.97
2022-12-06T23:26:23.070Z,101426.75
2022-12-06T23:28:51.506Z,101435.34
2022-12-06T23:31:21.887Z,101438.59
2022-12-06T23:33:53.536Z,101426.19
2022-12-06T23:36:24.773Z,101430.50
2022-12-06T23:38:53.134Z,101428.59
2022-12-06T23:41:23.435Z,101422.41
2022-12-06T23:43:51.668Z,101422.41
2022-12-06T23:46:22.600Z,101425.66
2022-12-06T23:48:50.840Z,101422.97
2022-12-06T23:51:21.345Z,101427.00
2022-12-06T23:53:52.725Z,101423.47
2022-12-06T23:56:22.896Z,101426.19
2022-12-06T23:58:51.953Z,101429.97
